KHFD

Hartford-Brainard Airport

Hartford, Connecticut, USA
METAR KHFD 230453Z AUTO 00000KT 10SM OVC085 04/03 A3018 RMK AO2 SLP218 T00390028 400941017
Observed Flight Rules
Oct-23 @ 04:53 UTC (25 minutes ago) Visual Flight Rules
Visibility Clouds
10 miles
  • Overcast at 8,500' AGL
Temperatures Readings
Current 4°C / 39°F
Dewpoint 3°C / 37°F
Humidity 93%
Altimeter 30.18" Hg
Pressure 1021.8 hPa
Elevation 4
METAR KHFD 230453Z AUTO 00000KT 10SM OVC085 04/03 A3018 RMK AO2 SLP218 T00390028 400941017
Observed Flight Rules
Oct-23 @ 04:53 UTC
(25 minutes ago)
VFR
Clouds
  • Overcast at 8,500' AGL
Temperature Dewpoint
4°C / 39°F 3°C / 37°F
Humidity Altimeter Pressure
93% 30.18" Hg 1021.8 hPa